Latest Weather Observations for Spitfire Channel

IDQ60801

Issued at 12:32 am EST Friday 21 July 2017 (issued every 30 minutes, with the page automatically refreshed every 10 minutes)

About weather observations | Map of weather stations | Latest weather observations for QLD | Other Formats
Station Details ID: 040927 Name: SPITFIRE CHANNEL BEACON Lat: -27.05 Lon: 153.27 Height: 7.0 m
Data from the previous 72 hours. | See also: Recent months for locations in Queensland
Date/Time
EST
Temp
°C
App
Temp
°C
Dew
Point
°C
Rel
Hum
%
Delta-T
°C
Wind Press
QNH
hPa
Press
MSL
hPa
Rain since
9am
mm
Dir  Spd
km/h
Gust
km/h
Spd
kts
Gust
kts
21/12:30am - - - - - WSW 26 32 14 17 - - -
21/12:00am - - - - - WSW 26 30 14 16 - - -
 
Date/Time
EST
Temp
°C
App
Temp
°C
Dew
Point
°C
Rel
Hum
%
Delta-T
°C
Wind Press
QNH
hPa
Press
MSL
hPa
Rain since
9am
mm
Dir  Spd
km/h
Gust
km/h
Spd
kts
Gust
kts
20/11:30pm - - - - - SW 20 24 11 13 - - -
20/11:00pm - - - - - SW 20 26 11 14 - - -
20/10:30pm - - - - - SW 19 24 10 13 - - -
20/10:00pm - - - - - SW 22 28 12 15 - - -
20/09:30pm - - - - - SW 28 32 15 17 - - -
20/09:00pm - - - - - WSW 22 26 12 14 - - -
20/08:30pm - - - - - WSW 28 33 15 18 - - -
20/08:00pm - - - - - WSW 22 26 12 14 - - -
20/07:30pm - - - - - WSW 20 24 11 13 - - -
20/07:00pm - - - - - WSW 15 19 8 10 - - -
20/06:30pm - - - - - WSW 17 20 9 11 - - -
20/06:00pm - - - - - SW 17 20 9 11 - - -
20/05:30pm - - - - - SW 20 24 11 13 - - -
20/05:00pm - - - - - SW 26 32 14 17 - - -
20/04:30pm - - - - - SW 28 35 15 19 - - -
20/04:00pm - - - - - SW 28 35 15 19 - - -
20/03:30pm - - - - - SSW 20 26 11 14 - - -
20/03:00pm - - - - - SW 19 28 10 15 - - -
20/02:30pm - - - - - WSW 20 28 11 15 - - -
20/02:00pm - - - - - WSW 24 30 13 16 - - -
20/01:30pm - - - - - WSW 20 28 11 15 - - -
20/01:00pm - - - - - WNW 11 15 6 8 - - -
20/12:30pm - - - - - W 15 20 8 11 - - -
20/12:00pm - - - - - WSW 13 17 7 9 - - -
20/11:30am - - - - - SW 15 17 8 9 - - -
20/11:00am - - - - - SW 19 26 10 14 - - -
20/10:30am - - - - - SW 24 28 13 15 - - -
20/10:00am - - - - - SW 22 28 12 15 - - -
20/09:30am - - - - - SW 22 26 12 14 - - -
20/09:00am - - - - - SW 22 28 12 15 - - -
20/08:30am - - - - - SW 20 28 11 15 - - -
20/08:00am - - - - - SW 19 22 10 12 - - -
20/07:30am - - - - - SW 20 24 11 13 - - -
20/07:00am - - - - - SW 28 35 15 19 - - -
20/06:30am - - - - - SW 28 33 15 18 - - -
20/06:00am - - - - - SW 26 33 14 18 - - -
20/05:30am - - - - - WSW 26 32 14 17 - - -
20/05:00am - - - - - SW 26 32 14 17 - - -
20/04:30am - - - - - SW 28 35 15 19 - - -
20/04:00am - - - - - SW 28 32 15 17 - - -
20/03:30am - - - - - SW 20 24 11 13 - - -
20/03:00am - - - - - WSW 19 22 10 12 - - -
20/02:30am - - - - - SW 20 26 11 14 - - -
20/02:00am - - - - - SW 22 28 12 15 - - -
20/01:30am - - - - - SW 30 39 16 21 - - -
20/01:00am - - - - - SW 32 41 17 22 - - -
20/12:30am - - - - - SW 28 39 15 21 - - -
20/12:00am - - - - - SW 26 33 14 18 - - -
 
Date/Time
EST
Temp
°C
App
Temp
°C
Dew
Point
°C
Rel
Hum
%
Delta-T
°C
Wind Press
QNH
hPa
Press
MSL
hPa
Rain since
9am
mm
Dir  Spd
km/h
Gust
km/h
Spd
kts
Gust
kts
19/11:30pm - - - - - SW 30 37 16 20 - - -
19/11:00pm - - - - - SW 20 32 11 17 - - -
19/10:30pm - - - - - SW 26 43 14 23 - - -
19/10:00pm - - - - - SW 41 52 22 28 - - -
19/09:30pm - - - - - SW 41 48 22 26 - - -
19/09:00pm - - - - - SW 39 48 21 26 - - -
19/08:30pm - - - - - SW 35 50 19 27 - - -
19/08:00pm - - - - - SW 37 50 20 27 - - -
19/07:30pm - - - - - SW 39 44 21 24 - - -
19/07:00pm - - - - - SW 35 44 19 24 - - -
19/06:30pm - - - - - SW 37 48 20 26 - - -
19/06:00pm - - - - - SW 35 46 19 25 - - -
19/05:30pm - - - - - SW 37 46 20 25 - - -
19/05:00pm - - - - - SW 33 43 18 23 - - -
19/04:30pm - - - - - SW 41 50 22 27 - - -
19/04:00pm - - - - - SW 41 54 22 29 - - -
19/03:30pm - - - - - SW 39 50 21 27 - - -
19/03:00pm - - - - - SW 48 59 26 32 - - -
19/02:30pm - - - - - WSW 43 54 23 29 - - -
19/02:00pm - - - - - WSW 41 52 22 28 - - -
19/01:30pm - - - - - WSW 41 57 22 31 - - -
19/01:00pm - - - - - WSW 43 56 23 30 - - -
19/12:30pm - - - - - WSW 39 48 21 26 - - -
19/12:00pm - - - - - WSW 37 46 20 25 - - -
19/11:30am - - - - - WSW 46 57 25 31 - - -
19/11:00am - - - - - WSW 41 50 22 27 - - -
19/10:30am - - - - - SW 43 52 23 28 - - -
19/10:00am - - - - - SW 46 56 25 30 - - -
19/09:30am - - - - - SW 43 50 23 27 - - -
19/09:00am - - - - - WSW 30 35 16 19 - - -
19/08:30am - - - - - WSW 32 39 17 21 - - -
19/08:00am - - - - - WSW 32 37 17 20 - - -
19/07:30am - - - - - WSW 30 33 16 18 - - -
19/07:00am - - - - - WSW 24 35 13 19 - - -
19/06:30am - - - - - W 17 20 9 11 - - -
19/06:00am - - - - - WNW 17 22 9 12 - - -
19/05:30am - - - - - W 19 22 10 12 - - -
19/05:00am - - - - - WNW 19 24 10 13 - - -
19/04:30am - - - - - WNW 17 20 9 11 - - -
19/04:00am - - - - - W 20 22 11 12 - - -
19/03:30am - - - - - WNW 24 28 13 15 - - -
19/03:00am - - - - - NW 17 22 9 12 - - -
19/02:30am - - - - - NW 9 13 5 7 - - -
19/02:00am - - - - - WNW 15 20 8 11 - - -
19/01:30am - - - - - W 17 35 9 19 - - -
19/01:00am - - - - - WNW 24 28 13 15 - - -
19/12:30am - - - - - WNW 28 35 15 19 - - -
19/12:00am - - - - - NW 19 32 10 17 - - -
 
Date/Time
EST
Temp
°C
App
Temp
°C
Dew
Point
°C
Rel
Hum
%
Delta-T
°C
Wind Press
QNH
hPa
Press
MSL
hPa
Rain since
9am
mm
Dir  Spd
km/h
Gust
km/h
Spd
kts
Gust
kts
18/11:30pm - - - - - NW 28 39 15 21 - - -
18/11:00pm - - - - - NNW 37 43 20 23 - - -
18/10:30pm - - - - - NNW 41 48 22 26 - - -
18/10:00pm - - - - - NNW 37 46 20 25 - - -
18/09:30pm - - - - - NNW 37 44 20 24 - - -
18/09:00pm - - - - - NNW 35 43 19 23 - - -
18/08:30pm - - - - - NNW 35 44 19 24 - - -
18/08:00pm - - - - - NNW 32 43 17 23 - - -
18/07:30pm - - - - - NNW 32 39 17 21 - - -
18/07:00pm - - - - - NNW 33 39 18 21 - - -
18/06:30pm - - - - - N 30 35 16 19 - - -
18/06:00pm - - - - - N 28 32 15 17 - - -
18/05:30pm - - - - - N 28 33 15 18 - - -
18/05:00pm - - - - - N 30 33 16 18 - - -
18/04:30pm - - - - - N 28 32 15 17 - - -
18/04:00pm - - - - - N 26 30 14 16 - - -
18/03:30pm - - - - - N 26 30 14 16 - - -
18/03:00pm - - - - - N 26 32 14 17 - - -
18/02:30pm - - - - - N 26 32 14 17 - - -
18/02:00pm - - - - - N 26 30 14 16 - - -
18/01:30pm - - - - - N 28 32 15 17 - - -
18/01:00pm - - - - - N 26 30 14 16 - - -
18/12:30pm - - - - - N 22 28 12 15 - - -
18/12:00pm - - - - - NNW 22 26 12 14 - - -
18/11:30am - - - - - NNW 20 24 11 13 - - -
18/11:00am - - - - - NNW 17 20 9 11 - - -
18/10:30am - - - - - NNW 11 15 6 8 - - -
18/10:00am - - - - - NW 7 11 4 6 - - -
18/09:30am - - - - - NW 9 15 5 8 - - -
18/09:00am - - - - - NW 9 17 5 9 - - -
18/08:30am - - - - - NNW 17 20 9 11 - - -
18/08:00am - - - - - NNW 13 17 7 9 - - -
18/07:30am - - - - - NNW 11 13 6 7 - - -
18/07:00am - - - - - NW 11 15 6 8 - - -
18/06:30am - - - - - NW 11 15 6 8 - - -
18/06:00am - - - - - NW 7 13 4 7 - - -
18/05:30am - - - - - NW 13 17 7 9 - - -
18/05:00am - - - - - NW 17 22 9 12 - - -
18/04:30am - - - - - NW 17 24 9 13 - - -
18/04:00am - - - - - NW 11 19 6 10 - - -
18/03:30am - - - - - NW 11 17 6 9 - - -
18/03:00am - - - - - NW 11 17 6 9 - - -
18/02:30am - - - - - NW 13 20 7 11 - - -
18/02:00am - - - - - NW 13 19 7 10 - - -
18/01:30am - - - - - NW 19 26 10 14 - - -
18/01:00am - - - - - NW 19 22 10 12 - - -

Other Formats:

Comma delimited format used in spreadsheet applications
http://www.bom.gov.au/fwo/IDQ60801/IDQ60801.94581.axf

JavaScript Object Notation format (JSON) in row-major order
http://www.bom.gov.au/fwo/IDQ60801/IDQ60801.94581.json